CheckWX is a tool to help pilots better visualize weather data.  It is not intended as a substitute for an official pre-flight weather briefing.

12:25:15 UTC

EBBL METAR
Kleine Brogel Air Base Airport
Kleine Brogel, Belgium
Current

30 mins ago

EBBL 231155Z 08008KT 9999 BKN010 04/02 Q1031 GRN GRN
Observed
Jan-23 @ 11:55 UTC
Wind
  • 080° at 8 KTS
Visibility
10,000+ meters
Flight Rules
MVFR
Cloud Levels
  • Broken at 1,000' AGL
Temperature
C / 39°F
Dewpoint
C / 36°F
Humidity
87%
Altimeter
30.44" Hg
Pressure
1030.92 hPa
Previous

60 mins ago

EBBL 231125Z 08006KT 9999 BKN013 04/02 Q1032 GRN GRN
Observed
Jan-23 @ 11:25 UTC
Wind
  • 080° at 6 KTS
Visibility
10,000+ meters
Flight Rules
MVFR
Cloud Levels
  • Broken at 1,300' AGL
Temperature
C / 39°F
Dewpoint
C / 36°F
Humidity
87%
Altimeter
30.47" Hg
Pressure
1031.92 hPa
Previous

2 hours ago

EBBL 231055Z 07006KT 9999 BKN013 04/02 Q1032 GRN GRN
Observed
Jan-23 @ 10:55 UTC
Wind
  • 070° at 6 KTS
Visibility
10,000+ meters
Flight Rules
MVFR
Cloud Levels
  • Broken at 1,300' AGL
Temperature
C / 39°F
Dewpoint
C / 36°F
Humidity
87%
Altimeter
30.47" Hg
Pressure
1031.92 hPa